Stolt Shearwater — ZCRD9 — position and weather

sailwx.info

Track history (hours):
 
Tides and Currents Weather Stations Pressure Air Temp Water Temp Dewpoint Dewpoint Depression Visibility Wind Speed Wind Dir Waves Ship Positions

Stolt Shearwater

Last reported at 2015-May-28 09:29 UTC. Time now 2015-May-28 10:08 UTC.
Position N 51°16' E 004°15'.

Length 96 m; draft 6.5 m.

Type: Ship (hazmat cat B). MMSI: 319402000.

Date/timePositionNaut miles runAvg speedWind from/ knotsBaromVisibWave heightAir tempDewpointWater temp
2015-May-28 09:29N 51°16' E 004°15'0 0.0
2015-May-28 08:32N 51°16' E 004°15'0 0.0
2015-May-28 07:32N 51°16' E 004°15'0 0.0
2015-May-28 06:26N 51°16' E 004°15'0 0.0
2015-May-28 05:33N 51°16' E 004°15'1 1.0
2015-May-28 04:33N 51°16' E 004°17'1 1.0
2015-May-28 03:33N 51°16' E 004°18'7 7.1
2015-May-28 02:33N 51°22' E 004°13'7 6.2
2015-May-28 01:23N 51°25' E 004°02'5 6.1
2015-May-28 00:33N 51°22' E 003°55'8 7.7
2015-May-27 23:33N 51°23' E 003°43'8 8.1
2015-May-27 22:33N 51°27' E 003°32'8 8.4
2015-May-27 21:33N 51°34' E 003°24'10 9.3
2015-May-27 20:27N 51°43' E 003°16'5 5.2
2015-May-27 19:25N 51°46' E 003°09'27 6.5
2015-May-27 15:20N 52°02' E 002°34'3111.1
2015-May-27 12:31N 52°30' E 002°12'1010.5
2015-May-27 11:33N 52°39' E 002°04'10 9.7
2015-May-27 10:33N 52°47' E 001°55'10 9.7
2015-May-27 09:33N 52°53' E 001°42'9 9.5
2015-May-27 08:33N 52°59' E 001°31'5310.2
2015-May-27 03:22N 53°32' E 000°22'910.8
2015-May-27 02:33N 53°33' E 000°07'1111.3
2015-May-27 01:34N 53°38' W 000°10'6 6.3
2015-May-27 00:32N 53°44' W 000°15'0 0.0
2015-May-26 23:32N 53°44' W 000°15'0 0.0
2015-May-26 22:32N 53°44' W 000°15'0 0.0
2015-May-26 21:32N 53°44' W 000°15'0 0.0
2015-May-26 20:32N 53°44' W 000°15'0 0.0
2015-May-26 19:32N 53°44' W 000°15'0 0.0
2015-May-26 18:32N 53°44' W 000°15'0 0.0
2015-May-26 17:32N 53°44' W 000°15'0 0.0
2015-May-26 16:29N 53°44' W 000°15'0 0.0
2015-May-26 15:32N 53°44' W 000°15'0 0.0
2015-May-26 14:32N 53°44' W 000°15'0 0.0
2015-May-26 13:32N 53°44' W 000°15'0 0.0
2015-May-26 12:29N 53°44' W 000°15'0 0.0
2015-May-26 11:32N 53°44' W 000°15'3 3.1
2015-May-26 10:33N 53°41' W 000°13'1111.3
2015-May-26 09:34N 53°35' E 000°03'9 8.7
2015-May-26 08:33N 53°35' E 000°18'9 8.9
2015-May-26 07:33N 53°43' E 000°23'9 9.3
2015-May-26 06:33N 53°53' E 000°22'10 9.7
2015-May-26 05:33N 54°02' E 000°21'1010.0
2015-May-26 04:33N 54°12' E 000°20'1110.6
2015-May-26 03:33N 54°20' E 000°08'1110.8
2015-May-26 02:33N 54°28' W 000°05'1111.1
2015-May-26 01:33N 54°36' W 000°18'1111.0
2015-May-26 00:33N 54°42' W 000°34'1010.6
2015-May-25 23:33N 54°43' W 000°52'1110.4
2015-May-25 22:29N 54°38' W 001°09'5 0.6
2015-May-25 14:16N 54°35' W 001°16'0 0.0
2015-May-25 12:16N 54°35' W 001°16'0 0.0
2015-May-25 11:22N 54°35' W 001°16'0 0.0
2015-May-25 10:10N 54°35' W 001°16'0 0.0
2015-May-25 09:22N 54°35' W 001°16'0 0.0
2015-May-25 08:22N 54°35' W 001°16'0 0.0
2015-May-25 07:22N 54°35' W 001°16'0 0.0
2015-May-25 06:28N 54°35' W 001°16'4 4.1
2015-May-25 05:32N 54°37' W 001°10'0 0.0
2015-May-24 14:28N 54°37' W 001°10'0 0.0
2015-May-24 13:22N 54°37' W 001°10'0 0.0
2015-May-24 12:28N 54°37' W 001°10'0 0.0
2015-May-24 11:28N 54°37' W 001°10'0 0.0
2015-May-24 10:28N 54°37' W 001°10'0 0.0
2015-May-24 09:31N 54°37' W 001°10'0 0.0
2015-May-24 08:31N 54°37' W 001°10'0 0.0
2015-May-24 07:19N 54°37' W 001°10'0 0.0
2015-May-24 06:33N 54°37' W 001°10'6 6.2
2015-May-24 05:33N 54°40' W 001°01'8 8.3
2015-May-24 04:33N 54°38' W 000°48'1010.4
2015-May-24 03:33N 54°34' W 000°31'1211.7
2015-May-24 02:33N 54°25' W 000°18'1212.0
2015-May-24 01:33N 54°16' W 000°04'1212.2
2015-May-24 00:33N 54°07' E 000°09'1211.8
2015-May-23 23:33N 53°58' E 000°22'1111.0
2015-May-23 22:33N 53°49' E 000°34'1010.3
2015-May-23 21:33N 53°41' E 000°45'4010.1
2015-May-23 17:33N 53°08' E 001°22'1211.5
2015-May-23 16:33N 52°58' E 001°33'1111.5
2015-May-23 15:33N 52°50' E 001°46'11 9.7
2015-May-23 14:28N 52°44' E 002°01'8 8.7
2015-May-23 13:33N 52°37' E 002°06'7 7.5
2015-May-23 12:33N 52°30' E 002°11'52 8.3
2015-May-23 06:16N 51°49' E 003°03'7 9.3
2015-May-23 05:33N 51°46' E 003°12'10 9.6
2015-May-23 04:28N 51°37' E 003°22'1010.7
2015-May-23 03:33N 51°29' E 003°30'6 6.5
2015-May-23 02:34N 51°27' E 003°40'9 8.5
2015-May-23 01:33N 51°21' E 003°50'8 8.5
2015-May-23 00:33N 51°26' E 004°01'8 8.2
2015-May-22 23:33N 51°23' E 004°13'4 3.5
2015-May-22 22:33N 51°21' E 004°17'0 0.5
2015-May-22 21:33N 51°20' E 004°18'3 2.9
2015-May-22 20:32N 51°18' E 004°20'0 0.0
2015-May-22 19:32N 51°18' E 004°20'0 0.0
2015-May-22 18:23N 51°18' E 004°20'0 0.0
2015-May-22 17:26N 51°18' E 004°20'0 0.0
2015-May-22 16:32N 51°18' E 004°20'0 0.0
2015-May-22 15:20N 51°18' E 004°20'0 0.0
2015-May-22 14:32N 51°18' E 004°20'0 0.0
2015-May-22 13:32N 51°18' E 004°20'0 0.0
2015-May-22 12:29N 51°18' E 004°20'0 0.0
2015-May-22 11:32N 51°18' E 004°20'0 0.0
2015-May-22 10:26N 51°18' E 004°20'0 0.0
2015-May-22 09:29N 51°18' E 004°20'0 0.0
2015-May-22 08:32N 51°18' E 004°20'0 0.0
2015-May-22 07:17N 51°18' E 004°20'0 0.0
2015-May-22 06:17N 51°18' E 004°20'0 0.0
2015-May-22 04:14N 51°18' E 004°20'0 0.0
2015-May-22 03:17N 51°18' E 004°20'0 0.0
2015-May-22 02:29N 51°18' E 004°20'0 0.0
2015-May-22 01:26N 51°18' E 004°20'0 0.0
2015-May-22 00:33N 51°18' E 004°20'1 1.1
2015-May-21 23:33N 51°17' E 004°20'0 0.4
2015-May-21 22:33N 51°17' E 004°20'6 6.4
2015-May-21 21:33N 51°22' E 004°13'6 6.1
2015-May-21 20:33N 51°22' E 004°04'4 4.2
2015-May-21 19:33N 51°24' E 003°57'7 6.8
2015-May-21 18:33N 51°21' E 003°47'8 8.2
2015-May-21 17:33N 51°25' E 003°36'9 9.4
2015-May-21 16:33N 51°24' E 003°21'1211.8
2015-May-21 15:33N 51°24' E 003°02'1212.1
2015-May-21 14:33N 51°21' E 002°44'1211.1
2015-May-21 13:29N 51°20' E 002°25'1111.8
2015-May-21 12:33N 51°15' E 002°09'1110.5
2015-May-21 11:33N 51°10' E 001°55'9 9.1
2015-May-21 10:34N 51°04' E 001°43'8 7.8
2015-May-21 09:33N 50°58' E 001°35'8 7.5
2015-May-21 08:32N 50°52' E 001°28'10 8.4
2015-May-21 07:22N 50°43' E 001°23'  
Track history (hours):
 
Tides and Currents Weather Stations Pressure Air Temp Water Temp Dewpoint Dewpoint Depression Visibility Wind Speed Wind Dir Waves Ship Positions

Stolt Shearwater

Last reported at 2015-May-28 09:29 UTC. Time now 2015-May-28 10:08 UTC.
Position N 51°16' E 004°15'.

Length 96 m; draft 6.5 m.

Type: Ship (hazmat cat B). MMSI: 319402000.

Date/timePositionNaut miles runAvg speedWind from/ knotsBaromVisibWave heightAir tempDewpointWater temp
2015-May-28 09:29N 51°16' E 004°15'0 0.0
2015-May-28 08:32N 51°16' E 004°15'0 0.0
2015-May-28 07:32N 51°16' E 004°15'0 0.0
2015-May-28 06:26N 51°16' E 004°15'0 0.0
2015-May-28 05:33N 51°16' E 004°15'1 1.0
2015-May-28 04:33N 51°16' E 004°17'1 1.0
2015-May-28 03:33N 51°16' E 004°18'7 7.1
2015-May-28 02:33N 51°22' E 004°13'7 6.2
2015-May-28 01:23N 51°25' E 004°02'5 6.1
2015-May-28 00:33N 51°22' E 003°55'8 7.7
2015-May-27 23:33N 51°23' E 003°43'8 8.1
2015-May-27 22:33N 51°27' E 003°32'8 8.4
2015-May-27 21:33N 51°34' E 003°24'10 9.3
2015-May-27 20:27N 51°43' E 003°16'5 5.2
2015-May-27 19:25N 51°46' E 003°09'27 6.5
2015-May-27 15:20N 52°02' E 002°34'3111.1
2015-May-27 12:31N 52°30' E 002°12'1010.5
2015-May-27 11:33N 52°39' E 002°04'10 9.7
2015-May-27 10:33N 52°47' E 001°55'10 9.7
2015-May-27 09:33N 52°53' E 001°42'9 9.5
2015-May-27 08:33N 52°59' E 001°31'5310.2
2015-May-27 03:22N 53°32' E 000°22'910.8
2015-May-27 02:33N 53°33' E 000°07'1111.3
2015-May-27 01:34N 53°38' W 000°10'6 6.3
2015-May-27 00:32N 53°44' W 000°15'0 0.0
2015-May-26 23:32N 53°44' W 000°15'0 0.0
2015-May-26 22:32N 53°44' W 000°15'0 0.0
2015-May-26 21:32N 53°44' W 000°15'0 0.0
2015-May-26 20:32N 53°44' W 000°15'0 0.0
2015-May-26 19:32N 53°44' W 000°15'0 0.0
2015-May-26 18:32N 53°44' W 000°15'0 0.0
2015-May-26 17:32N 53°44' W 000°15'0 0.0
2015-May-26 16:29N 53°44' W 000°15'0 0.0
2015-May-26 15:32N 53°44' W 000°15'0 0.0
2015-May-26 14:32N 53°44' W 000°15'0 0.0
2015-May-26 13:32N 53°44' W 000°15'0 0.0
2015-May-26 12:29N 53°44' W 000°15'0 0.0
2015-May-26 11:32N 53°44' W 000°15'3 3.1
2015-May-26 10:33N 53°41' W 000°13'1111.3
2015-May-26 09:34N 53°35' E 000°03'9 8.7
2015-May-26 08:33N 53°35' E 000°18'9 8.9
2015-May-26 07:33N 53°43' E 000°23'9 9.3
2015-May-26 06:33N 53°53' E 000°22'10 9.7
2015-May-26 05:33N 54°02' E 000°21'1010.0
2015-May-26 04:33N 54°12' E 000°20'1110.6
2015-May-26 03:33N 54°20' E 000°08'1110.8
2015-May-26 02:33N 54°28' W 000°05'1111.1
2015-May-26 01:33N 54°36' W 000°18'1111.0
2015-May-26 00:33N 54°42' W 000°34'1010.6
2015-May-25 23:33N 54°43' W 000°52'1110.4
2015-May-25 22:29N 54°38' W 001°09'5 0.6
2015-May-25 14:16N 54°35' W 001°16'0 0.0
2015-May-25 12:16N 54°35' W 001°16'0 0.0
2015-May-25 11:22N 54°35' W 001°16'0 0.0
2015-May-25 10:10N 54°35' W 001°16'0 0.0
2015-May-25 09:22N 54°35' W 001°16'0 0.0
2015-May-25 08:22N 54°35' W 001°16'0 0.0
2015-May-25 07:22N 54°35' W 001°16'0 0.0
2015-May-25 06:28N 54°35' W 001°16'4 4.1
2015-May-25 05:32N 54°37' W 001°10'0 0.0
2015-May-24 14:28N 54°37' W 001°10'0 0.0
2015-May-24 13:22N 54°37' W 001°10'0 0.0
2015-May-24 12:28N 54°37' W 001°10'0 0.0
2015-May-24 11:28N 54°37' W 001°10'0 0.0
2015-May-24 10:28N 54°37' W 001°10'0 0.0
2015-May-24 09:31N 54°37' W 001°10'0 0.0
2015-May-24 08:31N 54°37' W 001°10'0 0.0
2015-May-24 07:19N 54°37' W 001°10'0 0.0
2015-May-24 06:33N 54°37' W 001°10'6 6.2
2015-May-24 05:33N 54°40' W 001°01'8 8.3
2015-May-24 04:33N 54°38' W 000°48'1010.4
2015-May-24 03:33N 54°34' W 000°31'1211.7
2015-May-24 02:33N 54°25' W 000°18'1212.0
2015-May-24 01:33N 54°16' W 000°04'1212.2
2015-May-24 00:33N 54°07' E 000°09'1211.8
2015-May-23 23:33N 53°58' E 000°22'1111.0
2015-May-23 22:33N 53°49' E 000°34'1010.3
2015-May-23 21:33N 53°41' E 000°45'4010.1
2015-May-23 17:33N 53°08' E 001°22'1211.5
2015-May-23 16:33N 52°58' E 001°33'1111.5
2015-May-23 15:33N 52°50' E 001°46'11 9.7
2015-May-23 14:28N 52°44' E 002°01'8 8.7
2015-May-23 13:33N 52°37' E 002°06'7 7.5
2015-May-23 12:33N 52°30' E 002°11'52 8.3
2015-May-23 06:16N 51°49' E 003°03'7 9.3
2015-May-23 05:33N 51°46' E 003°12'10 9.6
2015-May-23 04:28N 51°37' E 003°22'1010.7
2015-May-23 03:33N 51°29' E 003°30'6 6.5
2015-May-23 02:34N 51°27' E 003°40'9 8.5
2015-May-23 01:33N 51°21' E 003°50'8 8.5
2015-May-23 00:33N 51°26' E 004°01'8 8.2
2015-May-22 23:33N 51°23' E 004°13'4 3.5
2015-May-22 22:33N 51°21' E 004°17'0 0.5
2015-May-22 21:33N 51°20' E 004°18'3 2.9
2015-May-22 20:32N 51°18' E 004°20'0 0.0
2015-May-22 19:32N 51°18' E 004°20'0 0.0
2015-May-22 18:23N 51°18' E 004°20'0 0.0
2015-May-22 17:26N 51°18' E 004°20'0 0.0
2015-May-22 16:32N 51°18' E 004°20'0 0.0
2015-May-22 15:20N 51°18' E 004°20'0 0.0
2015-May-22 14:32N 51°18' E 004°20'0 0.0
2015-May-22 13:32N 51°18' E 004°20'0 0.0
2015-May-22 12:29N 51°18' E 004°20'0 0.0
2015-May-22 11:32N 51°18' E 004°20'0 0.0
2015-May-22 10:26N 51°18' E 004°20'0 0.0
2015-May-22 09:29N 51°18' E 004°20'0 0.0
2015-May-22 08:32N 51°18' E 004°20'0 0.0
2015-May-22 07:17N 51°18' E 004°20'0 0.0
2015-May-22 06:17N 51°18' E 004°20'0 0.0
2015-May-22 04:14N 51°18' E 004°20'0 0.0
2015-May-22 03:17N 51°18' E 004°20'0 0.0
2015-May-22 02:29N 51°18' E 004°20'0 0.0
2015-May-22 01:26N 51°18' E 004°20'0 0.0
2015-May-22 00:33N 51°18' E 004°20'1 1.1
2015-May-21 23:33N 51°17' E 004°20'0 0.4
2015-May-21 22:33N 51°17' E 004°20'6 6.4
2015-May-21 21:33N 51°22' E 004°13'6 6.1
2015-May-21 20:33N 51°22' E 004°04'4 4.2
2015-May-21 19:33N 51°24' E 003°57'7 6.8
2015-May-21 18:33N 51°21' E 003°47'8 8.2
2015-May-21 17:33N 51°25' E 003°36'9 9.4
2015-May-21 16:33N 51°24' E 003°21'1211.8
2015-May-21 15:33N 51°24' E 003°02'1212.1
2015-May-21 14:33N 51°21' E 002°44'1211.1
2015-May-21 13:29N 51°20' E 002°25'1111.8
2015-May-21 12:33N 51°15' E 002°09'1110.5
2015-May-21 11:33N 51°10' E 001°55'9 9.1
2015-May-21 10:34N 51°04' E 001°43'8 7.8
2015-May-21 09:33N 50°58' E 001°35'8 7.5
2015-May-21 08:32N 50°52' E 001°28'10 8.4
2015-May-21 07:22N 50°43' E 001°23'  

Dump ship's entire track history